Time;durP1;ratioP1;P1;durP2;ratioP2;P2;SDS_P1;SDS_P2;PMS_P1;PMS_P2;Temp;Humidity;BMP_temperature;BMP_pressure;BME280_temperature;BME280_humidity;BME280_pressure;Samples;Min_cycle;Max_cycle;Signal;HPM_P1;HPM_P2
2023/08/19 00:21:06;;;;;;;0.00;0.00;;;21.10;88.00;;;;;;1613466;22;20132;-71
2023/08/19 00:23:32;;;;;;;0.00;0.00;;;21.00;88.10;;;;;;5040588;28;20135;-71
2023/08/19 00:25:57;;;;;;;0.10;0.10;;;21.00;88.10;;;;;;5031797;28;20046;-71
2023/08/19 00:28:23;;;;;;;0.00;0.00;;;21.00;88.10;;;;;;5031904;28;20045;-71
2023/08/19 00:30:49;;;;;;;0.00;0.00;;;21.00;88.10;;;;;;5032030;28;20513;-75
2023/08/19 00:33:14;;;;;;;0.00;0.00;;;20.90;88.10;;;;;;5031827;28;20081;-75
2023/08/19 00:35:42;;;;;;;0.00;0.00;;;21.00;88.20;;;;;;5030400;28;20385;-75
2023/08/19 00:38:08;;;;;;;0.00;0.00;;;20.90;88.20;;;;;;5031885;28;20055;-74
2023/08/19 00:40:34;;;;;;;0.00;0.00;;;20.90;88.30;;;;;;5021116;28;20128;-74
2023/08/19 00:42:59;;;;;;;0.10;0.10;;;20.90;88.50;;;;;;5038773;28;20578;-74
2023/08/19 00:45:25;;;;;;;0.00;0.00;;;20.90;88.40;;;;;;5031631;28;20419;-74
2023/08/19 00:47:51;;;;;;;0.00;0.00;;;21.00;88.30;;;;;;5039203;28;20167;-74
2023/08/19 00:50:16;;;;;;;0.00;0.00;;;20.90;88.40;;;;;;5031623;28;20037;-75
2023/08/19 00:52:43;;;;;;;0.00;0.00;;;20.90;88.40;;;;;;5022480;28;20083;-75
2023/08/19 00:55:09;;;;;;;0.00;0.00;;;20.90;88.40;;;;;;5033636;28;20041;-72
2023/08/19 00:57:39;;;;;;;0.00;0.00;;;20.90;88.50;;;;;;5024488;28;20049;-73
2023/08/19 01:00:05;;;;;;;0.00;0.00;;;20.90;88.40;;;;;;5017185;28;20063;-73
2023/08/19 01:02:31;;;;;;;0.00;0.00;;;20.90;88.40;;;;;;5043988;28;20041;-73
2023/08/19 01:04:57;;;;;;;0.00;0.00;;;20.90;88.50;;;;;;5031387;28;20414;-72
2023/08/19 01:07:33;;;;;;;0.00;0.00;;;20.80;88.50;;;;;;5021940;28;20056;-72
2023/08/19 01:10:07;;;;;;;0.00;0.00;;;20.80;88.50;;;;;;5034894;28;20041;-73
2023/08/19 01:13:00;;;;;;;0.00;0.00;;;20.80;88.50;;;;;;5040548;28;20383;-74
2023/08/19 01:15:29;;;;;;;0.00;0.00;;;20.80;88.70;;;;;;5055226;28;20037;-75
2023/08/19 01:17:56;;;;;;;0.00;0.00;;;20.80;88.70;;;;;;5027498;28;20040;-75
2023/08/19 01:20:29;;;;;;;0.00;0.00;;;20.80;88.70;;;;;;5055301;28;20159;-76
2023/08/19 01:23:11;;;;;;;0.25;0.15;;;20.80;88.70;;;;;;5030069;28;20052;-75
2023/08/19 01:25:37;;;;;;;0.00;0.00;;;20.80;88.80;;;;;;5001428;28;20045;-75
2023/08/19 01:28:05;;;;;;;0.00;0.00;;;20.80;88.80;;;;;;5046221;28;20148;-76
2023/08/19 01:30:33;;;;;;;0.00;0.00;;;20.80;88.80;;;;;;5017300;28;20041;-76
2023/08/19 01:32:59;;;;;;;0.00;0.00;;;20.80;88.80;;;;;;5022739;28;20140;-75
2023/08/19 01:35:25;;;;;;;0.10;0.10;;;20.80;88.90;;;;;;5020709;28;20144;-74
2023/08/19 01:38:00;;;;;;;0.00;0.00;;;20.80;89.00;;;;;;5040848;28;20122;-73
2023/08/19 01:40:27;;;;;;;0.00;0.00;;;20.80;89.00;;;;;;5037313;28;20462;-74
2023/08/19 01:42:54;;;;;;;0.00;0.00;;;20.80;88.90;;;;;;5051664;28;20045;-73
2023/08/19 01:45:21;;;;;;;0.03;0.03;;;20.70;88.90;;;;;;5034638;28;20130;-74
2023/08/19 01:47:53;;;;;;;0.00;0.00;;;20.70;88.90;;;;;;5030015;28;20061;-73
2023/08/19 01:50:18;;;;;;;0.28;0.20;;;20.70;88.90;;;;;;5017171;28;20111;-73
2023/08/19 01:52:44;;;;;;;0.00;0.00;;;20.70;88.90;;;;;;5000977;28;20053;-73
2023/08/19 01:55:10;;;;;;;0.00;0.00;;;20.70;88.80;;;;;;5054512;28;20505;-74
2023/08/19 01:57:36;;;;;;;0.00;0.00;;;20.70;88.90;;;;;;5052272;28;20132;-73
2023/08/19 02:00:03;;;;;;;0.00;0.00;;;20.70;88.90;;;;;;5001184;28;20558;-73
2023/08/19 02:02:29;;;;;;;0.00;0.00;;;20.70;88.90;;;;;;5034646;28;20124;-73
2023/08/19 02:04:55;;;;;;;0.00;0.00;;;20.60;88.90;;;;;;5051433;28;20136;-73
2023/08/19 02:07:21;;;;;;;0.20;0.20;;;20.60;88.90;;;;;;5042515;28;20046;-75
2023/08/19 02:09:46;;;;;;;0.00;0.00;;;20.60;88.90;;;;;;5034341;28;20140;-75
2023/08/19 02:12:12;;;;;;;0.00;0.00;;;20.70;88.90;;;;;;5017099;28;20414;-75
2023/08/19 02:14:38;;;;;;;0.00;0.00;;;20.60;89.00;;;;;;5034120;28;20077;-74
2023/08/19 02:17:04;;;;;;;0.00;0.00;;;20.60;89.00;;;;;;5024576;28;20076;-75
2023/08/19 02:19:30;;;;;;;0.00;0.00;;;20.60;89.00;;;;;;5035994;28;20088;-74
2023/08/19 02:21:55;;;;;;;0.00;0.00;;;20.70;89.00;;;;;;5027370;28;20075;-74
2023/08/19 02:24:21;;;;;;;0.00;0.00;;;20.60;89.10;;;;;;5034235;28;20061;-75
2023/08/19 02:26:46;;;;;;;0.00;0.00;;;20.60;89.00;;;;;;5038373;28;20167;-74
2023/08/19 02:29:12;;;;;;;0.00;0.00;;;20.60;89.00;;;;;;5016427;28;20058;-74
2023/08/19 02:31:38;;;;;;;0.00;0.00;;;20.60;89.10;;;;;;5017915;28;20048;-74
2023/08/19 02:34:04;;;;;;;0.00;0.00;;;20.60;89.10;;;;;;5035926;28;20533;-75
2023/08/19 02:36:31;;;;;;;0.00;0.00;;;20.60;89.10;;;;;;5012549;28;20129;-74
2023/08/19 02:38:57;;;;;;;0.00;0.00;;;20.60;89.10;;;;;;5035673;28;20048;-74
2023/08/19 02:41:23;;;;;;;0.00;0.00;;;20.60;89.20;;;;;;5019371;28;20041;-75
2023/08/19 02:43:49;;;;;;;0.00;0.00;;;20.60;89.30;;;;;;5035040;28;20506;-75
2023/08/19 02:46:15;;;;;;;0.00;0.00;;;20.60;89.30;;;;;;5020429;28;20457;-75
2023/08/19 02:48:41;;;;;;;0.20;0.20;;;20.60;89.40;;;;;;5037205;28;20149;-74
2023/08/19 02:53:32;;;;;;;0.00;0.00;;;20.60;89.50;;;;;;5124211;22;20139;-75
2023/08/19 02:55:58;;;;;;;0.10;0.10;;;20.50;89.50;;;;;;5071714;28;20070;-76
2023/08/19 02:58:24;;;;;;;0.00;0.00;;;20.50;89.60;;;;;;5066376;28;20037;-73
2023/08/19 03:00:50;;;;;;;0.00;0.00;;;20.50;89.60;;;;;;5073395;28;20551;-73
2023/08/19 03:03:17;;;;;;;0.00;0.00;;;20.60;89.50;;;;;;5044222;28;20049;-73
2023/08/19 03:05:42;;;;;;;0.00;0.00;;;20.60;89.50;;;;;;5055518;28;20121;-75
2023/08/19 03:08:09;;;;;;;0.00;0.00;;;20.60;89.40;;;;;;5063420;28;20045;-74
2023/08/19 03:10:36;;;;;;;0.00;0.00;;;20.60;89.50;;;;;;5019664;28;20053;-74
2023/08/19 03:13:03;;;;;;;0.00;0.00;;;20.60;89.50;;;;;;5065483;28;20037;-73
2023/08/19 03:15:30;;;;;;;0.00;0.00;;;20.60;89.50;;;;;;5035730;28;20056;-73
2023/08/19 03:17:55;;;;;;;0.00;0.00;;;20.60;89.50;;;;;;5048599;28;20098;-74
2023/08/19 03:20:21;;;;;;;0.00;0.00;;;20.60;89.40;;;;;;5053326;28;20052;-73
2023/08/19 03:22:47;;;;;;;0.00;0.00;;;20.60;89.50;;;;;;5052285;28;20492;-73
2023/08/19 03:25:12;;;;;;;0.00;0.00;;;20.60;89.50;;;;;;5052788;28;20049;-73
2023/08/19 03:27:38;;;;;;;0.00;0.00;;;20.70;89.60;;;;;;5018943;28;20053;-73
2023/08/19 03:30:05;;;;;;;0.00;0.00;;;20.70;89.60;;;;;;5052679;28;20041;-73
2023/08/19 03:32:31;;;;;;;0.00;0.00;;;20.70;89.60;;;;;;5034221;28;20186;-72
2023/08/19 03:34:57;;;;;;;0.00;0.00;;;20.60;89.60;;;;;;5015557;28;20068;-73
2023/08/19 03:37:23;;;;;;;0.00;0.00;;;20.70;89.60;;;;;;5047250;28;20041;-73
2023/08/19 03:39:48;;;;;;;0.00;0.00;;;20.60;89.60;;;;;;5016891;28;20132;-74
2023/08/19 03:42:14;;;;;;;0.00;0.00;;;20.70;89.60;;;;;;5032446;28;20053;-74
2023/08/19 03:44:40;;;;;;;0.00;0.00;;;20.60;89.50;;;;;;5048035;28;20059;-73
2023/08/19 03:47:05;;;;;;;0.00;0.00;;;20.70;89.60;;;;;;5022411;28;20103;-73
2023/08/19 03:49:31;;;;;;;0.00;0.00;;;20.70;89.60;;;;;;5046333;28;20127;-73
2023/08/19 03:51:56;;;;;;;0.20;0.13;;;20.70;89.70;;;;;;5050596;28;20052;-73
2023/08/19 03:54:30;;;;;;;0.00;0.00;;;20.70;89.90;;;;;;5075747;27;20415;-74
2023/08/19 03:56:56;;;;;;;0.00;0.00;;;20.70;89.90;;;;;;5078802;28;20122;-74
2023/08/19 03:59:22;;;;;;;0.00;0.00;;;20.70;89.90;;;;;;5079053;28;20114;-76
2023/08/19 04:01:47;;;;;;;0.10;0.10;;;20.70;90.20;;;;;;5068801;28;20067;-75
2023/08/19 04:04:13;;;;;;;0.00;0.00;;;20.70;90.10;;;;;;5076961;28;20139;-74
2023/08/19 04:06:38;;;;;;;0.00;0.00;;;20.70;90.20;;;;;;5081322;28;20511;-74
2023/08/19 04:09:05;;;;;;;0.00;0.00;;;20.70;90.10;;;;;;5073416;28;20048;-75
2023/08/19 04:11:31;;;;;;;0.00;0.00;;;20.70;90.10;;;;;;5087660;28;20044;-74
2023/08/19 04:13:56;;;;;;;0.00;0.00;;;20.80;90.00;;;;;;5084223;28;20040;-74
2023/08/19 04:16:23;;;;;;;0.00;0.00;;;20.80;89.90;;;;;;5071407;28;20044;-74
2023/08/19 04:18:50;;;;;;;0.00;0.00;;;20.80;90.00;;;;;;5088684;28;20048;-74
2023/08/19 04:21:16;;;;;;;0.00;0.00;;;20.80;90.00;;;;;;5084627;28;20036;-74
2023/08/19 04:23:42;;;;;;;0.00;0.00;;;20.80;90.00;;;;;;5068872;28;20045;-74
2023/08/19 04:26:07;;;;;;;0.10;0.10;;;20.80;90.00;;;;;;5067858;28;20425;-74
2023/08/19 04:28:33;;;;;;;0.15;0.15;;;20.90;90.00;;;;;;5068444;28;20040;-75
2023/08/19 04:31:03;;;;;;;0.00;0.00;;;20.80;90.00;;;;;;5068157;28;20049;-75
2023/08/19 04:33:30;;;;;;;0.00;0.00;;;20.80;89.90;;;;;;5067712;28;20048;-75
2023/08/19 04:35:55;;;;;;;0.00;0.00;;;20.90;90.10;;;;;;5066691;28;20070;-75
2023/08/19 04:38:21;;;;;;;0.00;0.00;;;20.90;90.20;;;;;;5067608;28;20198;-74
2023/08/19 04:40:46;;;;;;;0.00;0.00;;;20.90;90.10;;;;;;5067883;28;20410;-74
2023/08/19 04:43:12;;;;;;;0.00;0.00;;;20.90;90.00;;;;;;5067616;28;20045;-75
2023/08/19 04:45:38;;;;;;;0.00;0.00;;;20.90;89.90;;;;;;5067870;28;20048;-75
2023/08/19 04:48:05;;;;;;;0.00;0.00;;;20.90;90.00;;;;;;5066118;28;20045;-75
2023/08/19 04:50:31;;;;;;;0.00;0.00;;;20.90;90.00;;;;;;5066862;28;20128;-74
2023/08/19 04:52:57;;;;;;;0.00;0.00;;;20.90;90.00;;;;;;5066097;28;20063;-75
2023/08/19 04:55:22;;;;;;;0.00;0.00;;;20.90;90.00;;;;;;5066312;28;20128;-76
2023/08/19 04:57:48;;;;;;;0.00;0.00;;;20.90;90.00;;;;;;5066060;28;20052;-76
2023/08/19 05:00:14;;;;;;;0.00;0.00;;;21.00;90.00;;;;;;5064605;28;20052;-76
2023/08/19 05:02:39;;;;;;;0.00;0.00;;;21.00;89.90;;;;;;5065484;28;20072;-77
2023/08/19 05:05:05;;;;;;;0.05;0.05;;;21.00;90.00;;;;;;5039523;28;20037;-76
2023/08/19 05:07:31;;;;;;;0.00;0.00;;;21.00;90.00;;;;;;5051502;28;20555;-77
2023/08/19 05:09:57;;;;;;;0.00;0.00;;;21.00;90.00;;;;;;5051851;28;20044;-76
2023/08/19 05:12:25;;;;;;;0.00;0.00;;;21.00;90.00;;;;;;5051079;28;20070;-76
2023/08/19 05:14:51;;;;;;;0.00;0.00;;;21.00;90.00;;;;;;5051343;28;20053;-74
2023/08/19 05:17:18;;;;;;;0.00;0.00;;;21.00;90.10;;;;;;5052580;28;20044;-74
2023/08/19 05:19:44;;;;;;;0.00;0.00;;;21.00;90.00;;;;;;5052316;28;20409;-76
2023/08/19 05:22:10;;;;;;;0.00;0.00;;;21.00;90.00;;;;;;5051319;28;20114;-75
2023/08/19 05:24:35;;;;;;;0.00;0.00;;;21.10;90.10;;;;;;5034822;28;20139;-76
2023/08/19 05:27:01;;;;;;;0.00;0.00;;;21.00;90.00;;;;;;5052070;28;20119;-75
2023/08/19 05:29:27;;;;;;;0.00;0.00;;;21.10;89.90;;;;;;5052611;28;20131;-74
2023/08/19 05:31:53;;;;;;;0.00;0.00;;;21.10;90.10;;;;;;5052099;28;20033;-73
2023/08/19 05:34:18;;;;;;;0.00;0.00;;;21.10;89.90;;;;;;5052199;28;20508;-75
2023/08/19 05:36:44;;;;;;;0.00;0.00;;;21.10;90.00;;;;;;5052133;28;20099;-75
2023/08/19 05:39:10;;;;;;;0.28;0.15;;;21.20;90.30;;;;;;5051056;28;20091;-75
2023/08/19 05:41:35;;;;;;;0.00;0.00;;;21.20;90.40;;;;;;5033793;28;20055;-74
2023/08/19 05:44:01;;;;;;;0.10;0.10;;;21.10;90.20;;;;;;5051859;28;20045;-74
2023/08/19 05:46:27;;;;;;;0.00;0.00;;;21.20;90.30;;;;;;5052173;28;20508;-73
2023/08/19 05:48:53;;;;;;;0.00;0.00;;;21.20;90.20;;;;;;5051823;28;20051;-74
2023/08/19 05:51:19;;;;;;;0.00;0.00;;;21.30;90.10;;;;;;5034188;28;20064;-74
2023/08/19 05:53:44;;;;;;;0.20;0.20;;;21.30;90.10;;;;;;5049036;28;20059;-76
2023/08/19 05:56:10;;;;;;;0.00;0.00;;;21.20;90.00;;;;;;5051773;28;20036;-76
2023/08/19 05:58:38;;;;;;;0.00;0.00;;;21.30;90.00;;;;;;5051170;28;20079;-76
2023/08/19 06:01:04;;;;;;;0.15;0.15;;;21.30;89.90;;;;;;5063804;28;20544;-76
2023/08/19 06:03:30;;;;;;;0.10;0.10;;;21.30;89.90;;;;;;5050818;28;20041;-75
2023/08/19 06:05:55;;;;;;;0.00;0.00;;;21.30;90.00;;;;;;5051500;28;20044;-73
2023/08/19 06:08:21;;;;;;;0.00;0.00;;;21.30;90.00;;;;;;5048234;28;20033;-74
2023/08/19 06:11:05;;;;;;;0.20;0.20;;;21.40;90.00;;;;;;5048528;28;20550;-73
2023/08/19 06:13:31;;;;;;;0.00;0.00;;;21.50;89.90;;;;;;5048277;28;20040;-74
2023/08/19 06:15:57;;;;;;;0.00;0.00;;;21.50;89.80;;;;;;5047941;28;20497;-75
2023/08/19 06:18:24;;;;;;;0.05;0.05;;;21.50;89.80;;;;;;5027527;28;20057;-73
2023/08/19 06:20:50;;;;;;;0.00;0.00;;;21.50;89.80;;;;;;5048953;28;20045;-74
2023/08/19 06:23:20;;;;;;;0.00;0.00;;;21.50;90.00;;;;;;5050142;28;20150;-75
2023/08/19 06:25:50;;;;;;;4.80;0.43;;;21.50;90.10;;;;;;5050405;28;20064;-75
2023/08/19 06:28:17;;;;;;;0.00;0.00;;;21.60;90.10;;;;;;5044351;28;20120;-74
2023/08/19 06:30:43;;;;;;;0.00;0.00;;;21.60;90.10;;;;;;5031979;28;20049;-75
2023/08/19 06:33:10;;;;;;;0.00;0.00;;;21.60;90.20;;;;;;5043883;28;20040;-74
2023/08/19 06:35:36;;;;;;;0.00;0.00;;;21.60;90.10;;;;;;5060037;28;20151;-75
2023/08/19 06:38:13;;;;;;;0.00;0.00;;;21.60;89.90;;;;;;5045620;28;20135;-76
2023/08/19 06:40:44;;;;;;;0.00;0.00;;;21.60;89.90;;;;;;5035943;28;20048;-74
2023/08/19 06:43:10;;;;;;;0.00;0.00;;;21.70;89.90;;;;;;5048110;28;20041;-75
2023/08/19 06:45:36;;;;;;;0.00;0.00;;;21.70;89.70;;;;;;5049645;28;20040;-75
2023/08/19 06:48:02;;;;;;;0.00;0.00;;;21.70;89.70;;;;;;5050129;28;20119;-75
2023/08/19 06:50:29;;;;;;;0.00;0.00;;;21.80;89.60;;;;;;5048729;28;20420;-73
2023/08/19 06:52:55;;;;;;;0.00;0.00;;;21.80;89.70;;;;;;5047942;28;20130;-75
2023/08/19 06:55:21;;;;;;;0.00;0.00;;;21.80;89.80;;;;;;5047007;28;20426;-74
2023/08/19 06:58:00;;;;;;;0.00;0.00;;;21.80;89.70;;;;;;5047649;28;20108;-73
2023/08/19 07:00:26;;;;;;;0.00;0.00;;;21.90;89.60;;;;;;5048808;28;20057;-73
2023/08/19 07:02:53;;;;;;;0.00;0.00;;;21.90;89.50;;;;;;5049135;28;20044;-74
2023/08/19 07:05:20;;;;;;;0.00;0.00;;;22.00;89.50;;;;;;5041122;28;20056;-74
2023/08/19 07:07:50;;;;;;;0.00;0.00;;;22.00;89.40;;;;;;5050975;28;20041;-73
2023/08/19 07:10:17;;;;;;;0.00;0.00;;;22.00;89.50;;;;;;5043171;28;20425;-72
2023/08/19 07:12:43;;;;;;;0.00;0.00;;;22.10;89.40;;;;;;5044012;28;20037;-74
2023/08/19 07:15:12;;;;;;;0.00;0.00;;;22.10;89.40;;;;;;5049334;28;20041;-73
2023/08/19 07:17:50;;;;;;;0.00;0.00;;;22.10;89.30;;;;;;5032955;28;20196;-73
2023/08/19 07:20:20;;;;;;;0.00;0.00;;;22.10;89.20;;;;;;5039567;28;20045;-73
2023/08/19 07:22:51;;;;;;;0.00;0.00;;;22.20;89.30;;;;;;5048070;28;20076;-72
2023/08/19 07:25:17;;;;;;;0.00;0.00;;;22.20;89.20;;;;;;5047664;28;20043;-74
2023/08/19 07:27:44;;;;;;;0.00;0.00;;;22.20;89.20;;;;;;5047568;28;20045;-73
2023/08/19 07:30:11;;;;;;;0.08;0.08;;;22.20;89.20;;;;;;5046596;28;20117;-74
2023/08/19 07:32:38;;;;;;;0.00;0.00;;;22.20;89.10;;;;;;5044966;28;20107;-74
2023/08/19 07:35:05;;;;;;;0.20;0.20;;;22.30;89.10;;;;;;5049571;28;20056;-73
2023/08/19 07:37:31;;;;;;;0.03;0.03;;;22.30;89.10;;;;;;5051228;28;20040;-73
2023/08/19 07:39:57;;;;;;;0.08;0.08;;;22.30;89.00;;;;;;5049173;28;20029;-73
2023/08/19 07:42:23;;;;;;;0.00;0.00;;;22.40;88.90;;;;;;5058478;28;20047;-73
2023/08/19 07:44:49;;;;;;;0.00;0.00;;;22.40;88.90;;;;;;5048607;28;20045;-76
2023/08/19 07:47:14;;;;;;;0.00;0.00;;;22.50;88.70;;;;;;5096388;22;20045;-72
2023/08/19 07:49:40;;;;;;;0.00;0.00;;;22.50;88.70;;;;;;5026304;28;20041;-73
2023/08/19 07:52:06;;;;;;;0.00;0.00;;;22.50;88.50;;;;;;5033176;28;20040;-73
2023/08/19 07:54:32;;;;;;;0.10;0.10;;;22.60;88.40;;;;;;5030022;28;20092;-72
2023/08/19 07:56:58;;;;;;;0.00;0.00;;;22.60;88.40;;;;;;5030793;28;20045;-73
2023/08/19 07:59:27;;;;;;;0.00;0.00;;;22.70;88.40;;;;;;5013868;28;20045;-73
2023/08/19 08:01:54;;;;;;;0.00;0.00;;;22.80;88.40;;;;;;5030991;28;20107;-73
2023/08/19 08:04:21;;;;;;;0.00;0.00;;;22.90;88.30;;;;;;5030409;28;20053;-73
2023/08/19 08:06:48;;;;;;;0.30;0.28;;;23.00;88.30;;;;;;5028421;28;20049;-73
2023/08/19 08:09:14;;;;;;;0.10;0.10;;;23.10;88.10;;;;;;5029029;28;20079;-73
2023/08/19 08:11:41;;;;;;;0.75;0.65;;;23.10;87.90;;;;;;5030730;28;20045;-73
2023/08/19 08:14:07;;;;;;;0.00;0.00;;;23.20;87.80;;;;;;5028758;28;20069;-74
2023/08/19 08:16:33;;;;;;;0.00;0.00;;;23.30;87.60;;;;;;5045347;28;20073;-74
2023/08/19 08:18:58;;;;;;;0.05;0.05;;;23.40;87.50;;;;;;5030177;28;20140;-73
2023/08/19 08:21:24;;;;;;;0.05;0.05;;;23.50;87.30;;;;;;5029159;28;20329;-73
2023/08/19 08:23:49;;;;;;;0.60;0.60;;;23.60;87.20;;;;;;5029400;28;20691;-75
2023/08/19 08:26:16;;;;;;;1.55;0.10;;;23.70;87.00;;;;;;5025079;28;20085;-73
2023/08/19 08:28:42;;;;;;;0.00;0.00;;;23.80;86.80;;;;;;5046959;28;20049;-73
2023/08/19 08:31:09;;;;;;;0.20;0.20;;;23.80;85.80;;;;;;5050552;28;20391;-74
2023/08/19 08:33:34;;;;;;;0.10;0.10;;;23.90;85.70;;;;;;5050989;28;20044;-74
2023/08/19 08:36:00;;;;;;;0.00;0.00;;;23.90;85.70;;;;;;5032330;28;20543;-74
2023/08/19 08:38:26;;;;;;;0.00;0.00;;;24.00;85.80;;;;;;5030908;28;20072;-74
2023/08/19 08:40:52;;;;;;;1.60;0.40;;;24.00;85.80;;;;;;5032746;28;20057;-73
2023/08/19 08:43:18;;;;;;;0.30;0.30;;;24.00;85.20;;;;;;5016828;28;20053;-74
2023/08/19 08:45:45;;;;;;;0.00;0.00;;;24.10;85.00;;;;;;5033486;28;20057;-73
2023/08/19 08:48:11;;;;;;;0.20;0.20;;;24.20;85.00;;;;;;5033277;28;20132;-72
2023/08/19 08:50:38;;;;;;;0.20;0.20;;;24.20;85.30;;;;;;5031008;28;20046;-72
2023/08/19 08:53:04;;;;;;;0.08;0.08;;;24.20;85.00;;;;;;5033341;28;20049;-71
2023/08/19 08:55:30;;;;;;;0.00;0.00;;;24.20;84.70;;;;;;5031831;28;20521;-72
2023/08/19 08:57:55;;;;;;;0.00;0.00;;;24.20;84.80;;;;;;5031777;28;20119;-71
2023/08/19 09:00:21;;;;;;;0.00;0.00;;;24.30;85.00;;;;;;5032479;28;20081;-71
2023/08/19 09:02:48;;;;;;;0.00;0.00;;;24.30;84.70;;;;;;5029575;28;20120;-71
2023/08/19 09:05:15;;;;;;;0.00;0.00;;;24.20;84.40;;;;;;5032558;28;20069;-71
2023/08/19 09:07:42;;;;;;;0.85;0.57;;;24.20;84.60;;;;;;5031048;28;20053;-71
2023/08/19 09:10:16;;;;;;;0.00;0.00;;;24.30;84.80;;;;;;5031664;28;20125;-71
2023/08/19 09:12:50;;;;;;;0.03;0.03;;;24.40;84.90;;;;;;5031558;28;20033;-71
2023/08/19 09:15:17;;;;;;;0.00;0.00;;;24.30;84.70;;;;;;5033002;28;20057;-73
2023/08/19 09:17:44;;;;;;;8.15;0.88;;;24.40;84.70;;;;;;5031430;28;20050;-71
2023/08/19 09:20:12;;;;;;;0.00;0.00;;;24.50;84.70;;;;;;5031506;28;20454;-71
2023/08/19 09:22:41;;;;;;;0.00;0.00;;;24.50;84.70;;;;;;5027194;28;20076;-72
2023/08/19 09:25:12;;;;;;;0.00;0.00;;;24.50;84.60;;;;;;5020899;28;20045;-71
2023/08/19 09:27:38;;;;;;;0.75;0.55;;;24.50;84.20;;;;;;5022000;28;20046;-72
2023/08/19 09:30:04;;;;;;;0.20;0.20;;;24.50;83.90;;;;;;5027551;28;20456;-73
2023/08/19 09:32:36;;;;;;;0.00;0.00;;;24.50;84.20;;;;;;5024808;28;20392;-72
2023/08/19 09:35:11;;;;;;;1.00;0.75;;;24.60;84.50;;;;;;5029576;28;20163;-73
2023/08/19 09:37:38;;;;;;;0.00;0.00;;;24.60;84.50;;;;;;5028614;28;20052;-73
2023/08/19 09:40:11;;;;;;;0.00;0.00;;;24.60;84.40;;;;;;5025390;28;20073;-74
2023/08/19 09:42:37;;;;;;;0.22;0.20;;;24.70;84.60;;;;;;5028431;28;20060;-73
2023/08/19 09:45:04;;;;;;;0.00;0.00;;;24.70;84.60;;;;;;5028417;28;20042;-74
2023/08/19 09:47:44;;;;;;;0.00;0.00;;;24.70;84.70;;;;;;5030928;28;20402;-73
2023/08/19 09:50:09;;;;;;;1.65;0.35;;;24.90;84.70;;;;;;5012223;28;20049;-74
2023/08/19 09:52:35;;;;;;;0.08;0.08;;;24.90;84.30;;;;;;5016843;28;20121;-72
2023/08/19 09:55:01;;;;;;;0.00;0.00;;;25.00;84.40;;;;;;5030346;28;20084;-73
2023/08/19 09:57:34;;;;;;;1.30;1.08;;;25.10;84.40;;;;;;5028676;28;20046;-72
2023/08/19 10:00:01;;;;;;;0.10;0.10;;;25.20;83.80;;;;;;5027104;28;20045;-73
2023/08/19 10:02:28;;;;;;;0.00;0.00;;;25.30;83.90;;;;;;5028800;28;20148;-72
2023/08/19 10:04:54;;;;;;;0.57;0.20;;;25.40;83.60;;;;;;5034660;28;20045;-73
2023/08/19 10:07:24;;;;;;;0.00;0.00;;;25.50;83.50;;;;;;5035000;28;20246;-75
2023/08/19 10:09:52;;;;;;;0.30;0.30;;;25.50;83.10;;;;;;5034625;28;20057;-74
2023/08/19 10:12:19;;;;;;;0.00;0.00;;;25.50;82.40;;;;;;5029621;28;20084;-71
2023/08/19 10:14:49;;;;;;;0.90;0.82;;;25.50;82.80;;;;;;5030512;28;20046;-73
2023/08/19 10:17:15;;;;;;;0.30;0.30;;;25.50;82.90;;;;;;5029424;28;20076;-72
2023/08/19 10:19:53;;;;;;;0.00;0.00;;;25.50;83.00;;;;;;5030754;28;20361;-72
2023/08/19 10:22:19;;;;;;;0.17;0.17;;;25.50;83.20;;;;;;5029117;28;20542;-71
2023/08/19 10:24:47;;;;;;;0.00;0.00;;;25.50;82.90;;;;;;5032187;28;20045;-74
2023/08/19 10:27:20;;;;;;;0.17;0.17;;;25.60;82.80;;;;;;5029316;28;20042;-74
2023/08/19 10:29:46;;;;;;;0.22;0.22;;;25.70;82.50;;;;;;5031016;28;20117;-72
2023/08/19 10:32:25;;;;;;;0.10;0.10;;;25.80;82.40;;;;;;5032331;28;20045;-72
2023/08/19 10:34:50;;;;;;;0.00;0.00;;;25.80;82.10;;;;;;5032134;28;20094;-73
2023/08/19 10:37:16;;;;;;;0.00;0.00;;;25.90;82.10;;;;;;5025954;28;20125;-71
2023/08/19 10:39:46;;;;;;;0.00;0.00;;;25.90;81.80;;;;;;5027638;28;20517;-71
2023/08/19 10:42:13;;;;;;;0.10;0.10;;;26.00;82.10;;;;;;5025030;28;20079;-71
2023/08/19 10:44:39;;;;;;;0.17;0.17;;;26.00;81.80;;;;;;5032064;28;20065;-71
2023/08/19 10:47:16;;;;;;;0.63;0.63;;;25.90;81.80;;;;;;5030982;28;20045;-73
2023/08/19 10:49:42;;;;;;;0.00;0.00;;;25.90;81.70;;;;;;5030117;28;20050;-72
2023/08/19 10:52:07;;;;;;;0.10;0.10;;;25.90;82.00;;;;;;5032087;28;20052;-72
2023/08/19 10:54:40;;;;;;;2.50;0.55;;;25.80;82.30;;;;;;5031604;28;20049;-72
2023/08/19 10:57:13;;;;;;;0.28;0.28;;;25.70;82.40;;;;;;5029110;28;20060;-72
2023/08/19 10:59:41;;;;;;;0.28;0.28;;;25.60;82.60;;;;;;5031494;28;20052;-73
2023/08/19 11:02:08;;;;;;;3.67;1.15;;;25.50;82.50;;;;;;5013616;28;20486;-73
2023/08/19 11:04:36;;;;;;;0.05;0.05;;;25.30;82.40;;;;;;5029795;28;20056;-76
2023/08/19 11:07:05;;;;;;;0.10;0.10;;;25.00;82.70;;;;;;5030170;28;20124;-72
2023/08/19 11:09:30;;;;;;;1.77;1.67;;;24.90;83.00;;;;;;5025189;28;20068;-73
2023/08/19 11:11:57;;;;;;;1.92;0.65;;;24.70;83.10;;;;;;5030214;28;20498;-73
2023/08/19 11:14:24;;;;;;;1.10;1.05;;;24.50;83.30;;;;;;5030079;28;20049;-75
2023/08/19 11:16:55;;;;;;;0.35;0.32;;;24.50;83.60;;;;;;5014149;28;20057;-73
2023/08/19 11:19:22;;;;;;;0.70;0.65;;;24.40;84.10;;;;;;5030307;28;20054;-72
2023/08/19 11:21:47;;;;;;;0.13;0.13;;;24.40;84.10;;;;;;5031793;28;20495;-72
2023/08/19 11:24:14;;;;;;;0.20;0.20;;;24.20;83.70;;;;;;5031994;28;20095;-72
2023/08/19 11:26:44;;;;;;;0.17;0.17;;;24.20;83.90;;;;;;5032030;28;20080;-72
2023/08/19 11:29:10;;;;;;;12.27;0.77;;;24.20;84.00;;;;;;5030388;28;20387;-73
2023/08/19 11:31:37;;;;;;;0.50;0.50;;;24.20;83.60;;;;;;5030304;28;20051;-72
2023/08/19 11:34:10;;;;;;;0.70;0.65;;;24.20;83.10;;;;;;5030687;28;20700;-72
2023/08/19 11:36:37;;;;;;;0.93;0.85;;;24.10;81.20;;;;;;5023085;28;20057;-75
2023/08/19 11:39:04;;;;;;;0.00;0.00;;;24.10;81.30;;;;;;5019136;28;20053;-72
2023/08/19 11:41:30;;;;;;;0.35;0.35;;;24.00;80.80;;;;;;5029245;28;20076;-72
2023/08/19 11:43:57;;;;;;;0.22;0.22;;;24.00;79.70;;;;;;5028574;28;20269;-72
2023/08/19 11:46:30;;;;;;;2.05;0.47;;;24.00;79.80;;;;;;5021150;28;20049;-74
2023/08/19 11:48:57;;;;;;;0.20;0.20;;;23.90;79.60;;;;;;5025481;28;20053;-72
2023/08/19 11:51:27;;;;;;;0.00;0.00;;;23.80;78.80;;;;;;5024404;28;20542;-71
2023/08/19 11:54:01;;;;;;;2.55;1.88;;;23.80;78.40;;;;;;5029719;28;20096;-72
2023/08/19 11:56:27;;;;;;;0.10;0.10;;;23.70;77.10;;;;;;5027440;28;20041;-72
2023/08/19 11:58:54;;;;;;;0.40;0.40;;;23.80;78.20;;;;;;5030052;28;20091;-71
2023/08/19 12:03:51;;;;;;;0.03;0.03;;;23.80;77.90;;;;;;5098085;22;20056;-72
2023/08/19 12:06:17;;;;;;;0.00;0.00;;;23.90;77.90;;;;;;5019369;28;20081;-72
2023/08/19 12:08:44;;;;;;;2.60;1.00;;;23.90;77.90;;;;;;5031611;28;20045;-80
2023/08/19 12:11:14;;;;;;;0.20;0.20;;;23.90;77.20;;;;;;5049836;28;20080;-72
2023/08/19 12:13:40;;;;;;;0.00;0.00;;;23.90;76.90;;;;;;5051719;28;20049;-72
2023/08/19 12:16:07;;;;;;;0.10;0.10;;;23.80;77.10;;;;;;5053662;28;20107;-73
2023/08/19 12:18:36;;;;;;;0.10;0.10;;;23.70;76.80;;;;;;5055233;28;20048;-72
2023/08/19 12:21:03;;;;;;;0.00;0.00;;;23.70;76.10;;;;;;5054947;28;20411;-76
2023/08/19 12:23:29;;;;;;;0.10;0.10;;;23.60;77.20;;;;;;5042939;28;20375;-73
2023/08/19 12:25:57;;;;;;;1.55;0.47;;;23.70;77.00;;;;;;5034136;28;20449;-74
2023/08/19 12:28:24;;;;;;;0.00;0.00;;;23.50;77.20;;;;;;5032336;28;20056;-73
2023/08/19 12:30:51;;;;;;;0.00;0.00;;;23.60;77.80;;;;;;5033713;28;20053;-72
2023/08/19 12:33:18;;;;;;;0.95;0.85;;;23.50;77.80;;;;;;5033791;28;20050;-71
2023/08/19 12:35:46;;;;;;;0.63;0.63;;;23.50;77.60;;;;;;5033799;28;20059;-72
2023/08/19 12:38:18;;;;;;;0.00;0.00;;;23.50;78.10;;;;;;5033886;28;20175;-71
2023/08/19 12:40:45;;;;;;;0.00;0.00;;;23.40;78.20;;;;;;5033767;28;20104;-73
2023/08/19 12:43:12;;;;;;;0.00;0.00;;;23.40;78.00;;;;;;5031684;28;20110;-72
2023/08/19 12:45:39;;;;;;;0.00;0.00;;;23.40;77.50;;;;;;4997525;28;20050;-72
2023/08/19 12:48:05;;;;;;;0.00;0.00;;;23.40;77.70;;;;;;5013888;28;20053;-73
2023/08/19 12:50:31;;;;;;;0.10;0.10;;;23.40;78.20;;;;;;5023854;28;20143;-72
2023/08/19 12:52:57;;;;;;;0.40;0.20;;;23.40;78.30;;;;;;5033226;28;20522;-74
2023/08/19 12:55:24;;;;;;;0.38;0.35;;;23.30;78.70;;;;;;5020055;28;20498;-75
2023/08/19 12:57:54;;;;;;;0.10;0.10;;;23.30;78.60;;;;;;5026835;28;20038;-71
2023/08/19 13:00:21;;;;;;;0.20;0.20;;;23.20;78.90;;;;;;5022961;28;20522;-72
2023/08/19 13:02:46;;;;;;;0.00;0.00;;;23.30;79.10;;;;;;5030911;28;20049;-72
2023/08/19 13:05:12;;;;;;;0.00;0.00;;;23.20;79.30;;;;;;5034377;28;20072;-72
2023/08/19 13:07:38;;;;;;;0.00;0.00;;;23.30;79.70;;;;;;5033456;28;20056;-72
2023/08/19 13:10:05;;;;;;;0.00;0.00;;;23.30;80.10;;;;;;5034303;28;20049;-72
2023/08/19 13:12:30;;;;;;;0.00;0.00;;;23.20;80.10;;;;;;5033326;28;20143;-72